Karratha King Bay, Australia
Current Conditions -  °F | °C
As of 4:00 AM on Friday 24 Oct 2014 (Local Time) from YPPD Reporting Station
Clear Clear  
Wind Chill: 72°   Ceiling: Unl
Heat Index: 72°   Visibility: 6mi
Dew Point: 66°   Wind: 7mph
Humidity: 83%   Direction: 230°SW
Pressure: 29.8"   Gusts: NA
Location:  20.62°S, 116.75°E
Report Text: YPPD 232000Z AUTO 23006KT 9999 // NCD 22/19 Q1009
Loading
Personal Weather Stations






























Interactive Weather Map
Tropical Storm Tracking
New forecast layout! Learn more

10-Day Weather Forecast

Advertisements
Track Severe Weather on mobile